sensor_id;sensor_type;location;lat;lon;timestamp;temperature;humidity
41256;DHT22;26989;45.524;10.938;2023-05-27T00:00:50;21.50;99.90
41256;DHT22;26989;45.524;10.938;2023-05-27T00:03:17;21.50;99.90
41256;DHT22;26989;45.524;10.938;2023-05-27T00:05:45;21.40;99.90
41256;DHT22;26989;45.524;10.938;2023-05-27T00:08:12;21.40;99.90
41256;DHT22;26989;45.524;10.938;2023-05-27T00:10:39;21.40;99.90
41256;DHT22;26989;45.524;10.938;2023-05-27T00:13:08;21.50;99.90
41256;DHT22;26989;45.524;10.938;2023-05-27T00:15:35;21.30;99.90
41256;DHT22;26989;45.524;10.938;2023-05-27T00:18:02;21.10;99.90
41256;DHT22;26989;45.524;10.938;2023-05-27T00:20:29;20.90;99.90
41256;DHT22;26989;45.524;10.938;2023-05-27T00:22:58;20.60;99.90
41256;DHT22;26989;45.524;10.938;2023-05-27T00:25:26;20.70;99.90
41256;DHT22;26989;45.524;10.938;2023-05-27T00:27:55;20.60;99.90
41256;DHT22;26989;45.524;10.938;2023-05-27T00:30:22;20.60;99.90
41256;DHT22;26989;45.524;10.938;2023-05-27T00:32:49;20.20;99.90
41256;DHT22;26989;45.524;10.938;2023-05-27T00:35:16;20.10;99.90
41256;DHT22;26989;45.524;10.938;2023-05-27T00:37:43;20.10;99.90
41256;DHT22;26989;45.524;10.938;2023-05-27T00:40:11;20.00;99.90
41256;DHT22;26989;45.524;10.938;2023-05-27T00:42:38;19.90;99.90
41256;DHT22;26989;45.524;10.938;2023-05-27T00:45:05;19.80;99.90
41256;DHT22;26989;45.524;10.938;2023-05-27T00:47:33;19.90;99.90
41256;DHT22;26989;45.524;10.938;2023-05-27T00:50:02;19.90;99.90
41256;DHT22;26989;45.524;10.938;2023-05-27T00:52:30;19.70;99.90
41256;DHT22;26989;45.524;10.938;2023-05-27T00:54:57;20.00;99.90
41256;DHT22;26989;45.524;10.938;2023-05-27T00:57:26;19.90;99.90
41256;DHT22;26989;45.524;10.938;2023-05-27T00:59:53;19.90;99.90
41256;DHT22;26989;45.524;10.938;2023-05-27T01:02:20;19.80;99.90
41256;DHT22;26989;45.524;10.938;2023-05-27T01:04:47;19.80;99.90
41256;DHT22;26989;45.524;10.938;2023-05-27T01:12:51;20.10;99.90
41256;DHT22;26989;45.524;10.938;2023-05-27T01:15:23;20.20;99.90
41256;DHT22;26989;45.524;10.938;2023-05-27T01:17:53;20.30;99.90
41256;DHT22;26989;45.524;10.938;2023-05-27T01:20:23;20.30;99.90
41256;DHT22;26989;45.524;10.938;2023-05-27T01:22:50;20.00;99.90
41256;DHT22;26989;45.524;10.938;2023-05-27T01:25:19;19.70;99.90
41256;DHT22;26989;45.524;10.938;2023-05-27T01:27:46;19.50;99.90
41256;DHT22;26989;45.524;10.938;2023-05-27T01:30:14;19.40;99.90
41256;DHT22;26989;45.524;10.938;2023-05-27T01:32:43;19.40;99.90
41256;DHT22;26989;45.524;10.938;2023-05-27T01:38:11;19.20;99.90
41256;DHT22;26989;45.524;10.938;2023-05-27T01:40:40;19.10;99.90
41256;DHT22;26989;45.524;10.938;2023-05-27T01:43:08;19.10;99.90
41256;DHT22;26989;45.524;10.938;2023-05-27T01:45:36;19.10;99.90
41256;DHT22;26989;45.524;10.938;2023-05-27T01:48:04;19.20;99.90
41256;DHT22;26989;45.524;10.938;2023-05-27T01:50:31;19.30;99.90
41256;DHT22;26989;45.524;10.938;2023-05-27T01:53:00;19.40;99.90
41256;DHT22;26989;45.524;10.938;2023-05-27T01:55:27;19.40;99.90
41256;DHT22;26989;45.524;10.938;2023-05-27T01:57:54;19.60;99.90
41256;DHT22;26989;45.524;10.938;2023-05-27T02:00:21;19.70;99.90
41256;DHT22;26989;45.524;10.938;2023-05-27T02:02:48;19.70;99.90
41256;DHT22;26989;45.524;10.938;2023-05-27T02:05:15;19.70;99.90
41256;DHT22;26989;45.524;10.938;2023-05-27T02:07:42;19.70;99.90
41256;DHT22;26989;45.524;10.938;2023-05-27T02:10:09;19.80;99.90
41256;DHT22;26989;45.524;10.938;2023-05-27T02:12:36;19.70;99.90
41256;DHT22;26989;45.524;10.938;2023-05-27T02:15:03;19.70;99.90
41256;DHT22;26989;45.524;10.938;2023-05-27T02:17:30;19.50;99.90
41256;DHT22;26989;45.524;10.938;2023-05-27T02:19:57;19.40;99.90
41256;DHT22;26989;45.524;10.938;2023-05-27T02:22:24;19.40;99.90
41256;DHT22;26989;45.524;10.938;2023-05-27T02:24:51;19.50;99.90
41256;DHT22;26989;45.524;10.938;2023-05-27T02:27:18;19.40;99.90
41256;DHT22;26989;45.524;10.938;2023-05-27T02:29:45;19.30;99.90
41256;DHT22;26989;45.524;10.938;2023-05-27T02:32:12;19.20;99.90
41256;DHT22;26989;45.524;10.938;2023-05-27T02:34:39;19.00;99.90
41256;DHT22;26989;45.524;10.938;2023-05-27T02:37:07;18.80;99.90
41256;DHT22;26989;45.524;10.938;2023-05-27T02:39:34;18.80;99.90
41256;DHT22;26989;45.524;10.938;2023-05-27T02:42:01;18.80;99.90
41256;DHT22;26989;45.524;10.938;2023-05-27T02:44:29;18.80;99.90
41256;DHT22;26989;45.524;10.938;2023-05-27T02:46:56;18.70;99.90
41256;DHT22;26989;45.524;10.938;2023-05-27T02:49:23;18.70;99.90
41256;DHT22;26989;45.524;10.938;2023-05-27T02:51:50;18.70;99.90
41256;DHT22;26989;45.524;10.938;2023-05-27T02:54:17;18.50;99.90
41256;DHT22;26989;45.524;10.938;2023-05-27T02:56:44;18.50;99.90
41256;DHT22;26989;45.524;10.938;2023-05-27T02:59:11;18.40;99.90
41256;DHT22;26989;45.524;10.938;2023-05-27T03:01:38;18.30;99.90
41256;DHT22;26989;45.524;10.938;2023-05-27T03:04:05;18.40;99.90
41256;DHT22;26989;45.524;10.938;2023-05-27T03:06:32;18.40;99.90
41256;DHT22;26989;45.524;10.938;2023-05-27T03:09:00;18.30;99.90
41256;DHT22;26989;45.524;10.938;2023-05-27T03:11:27;18.40;99.90
41256;DHT22;26989;45.524;10.938;2023-05-27T03:13:54;18.30;99.90
41256;DHT22;26989;45.524;10.938;2023-05-27T03:16:21;18.30;99.90
41256;DHT22;26989;45.524;10.938;2023-05-27T03:18:49;18.30;99.90
41256;DHT22;26989;45.524;10.938;2023-05-27T03:21:16;18.30;99.90
41256;DHT22;26989;45.524;10.938;2023-05-27T03:23:43;18.20;99.90
41256;DHT22;26989;45.524;10.938;2023-05-27T03:26:10;18.20;99.90
41256;DHT22;26989;45.524;10.938;2023-05-27T03:28:37;18.20;99.90
41256;DHT22;26989;45.524;10.938;2023-05-27T03:31:04;18.20;99.90
41256;DHT22;26989;45.524;10.938;2023-05-27T03:33:31;18.20;99.90
41256;DHT22;26989;45.524;10.938;2023-05-27T03:35:58;18.20;99.90
41256;DHT22;26989;45.524;10.938;2023-05-27T03:38:25;18.20;99.90
41256;DHT22;26989;45.524;10.938;2023-05-27T03:40:52;18.20;99.90
41256;DHT22;26989;45.524;10.938;2023-05-27T03:43:19;18.20;99.90
41256;DHT22;26989;45.524;10.938;2023-05-27T03:45:46;18.20;99.90
41256;DHT22;26989;45.524;10.938;2023-05-27T03:48:13;18.20;99.90
41256;DHT22;26989;45.524;10.938;2023-05-27T03:50:40;18.10;99.90
41256;DHT22;26989;45.524;10.938;2023-05-27T03:53:09;18.10;99.90
41256;DHT22;26989;45.524;10.938;2023-05-27T03:55:36;18.00;99.90
41256;DHT22;26989;45.524;10.938;2023-05-27T03:58:03;18.00;99.90
41256;DHT22;26989;45.524;10.938;2023-05-27T04:00:31;18.10;99.90
41256;DHT22;26989;45.524;10.938;2023-05-27T04:02:58;18.10;99.90
41256;DHT22;26989;45.524;10.938;2023-05-27T04:05:25;18.10;99.90
41256;DHT22;26989;45.524;10.938;2023-05-27T04:07:52;17.90;99.90
41256;DHT22;26989;45.524;10.938;2023-05-27T04:10:18;17.90;99.90
41256;DHT22;26989;45.524;10.938;2023-05-27T04:12:46;17.90;99.90
41256;DHT22;26989;45.524;10.938;2023-05-27T04:15:12;17.90;99.90
41256;DHT22;26989;45.524;10.938;2023-05-27T04:17:39;18.00;99.90
41256;DHT22;26989;45.524;10.938;2023-05-27T04:20:07;17.80;99.90
41256;DHT22;26989;45.524;10.938;2023-05-27T04:22:41;17.90;99.90
41256;DHT22;26989;45.524;10.938;2023-05-27T04:25:09;17.80;99.90
41256;DHT22;26989;45.524;10.938;2023-05-27T04:27:36;17.50;99.90
41256;DHT22;26989;45.524;10.938;2023-05-27T04:30:06;17.50;99.90
41256;DHT22;26989;45.524;10.938;2023-05-27T04:32:36;17.50;99.90
41256;DHT22;26989;45.524;10.938;2023-05-27T04:35:06;17.40;99.90
41256;DHT22;26989;45.524;10.938;2023-05-27T04:37:37;17.40;99.90
41256;DHT22;26989;45.524;10.938;2023-05-27T04:40:05;17.50;99.90
41256;DHT22;26989;45.524;10.938;2023-05-27T04:42:35;17.60;99.90
41256;DHT22;26989;45.524;10.938;2023-05-27T04:45:06;17.60;99.90
41256;DHT22;26989;45.524;10.938;2023-05-27T04:47:33;17.70;99.90
41256;DHT22;26989;45.524;10.938;2023-05-27T04:50:06;17.90;99.90
41256;DHT22;26989;45.524;10.938;2023-05-27T04:52:33;17.90;99.90
41256;DHT22;26989;45.524;10.938;2023-05-27T04:55:08;18.10;99.90
41256;DHT22;26989;45.524;10.938;2023-05-27T04:57:35;18.30;99.90
41256;DHT22;26989;45.524;10.938;2023-05-27T05:00:03;18.50;99.90
41256;DHT22;26989;45.524;10.938;2023-05-27T05:02:30;18.30;99.90
41256;DHT22;26989;45.524;10.938;2023-05-27T05:05:02;18.30;99.90
41256;DHT22;26989;45.524;10.938;2023-05-27T05:07:30;18.30;99.90
41256;DHT22;26989;45.524;10.938;2023-05-27T05:09:57;18.20;99.90
41256;DHT22;26989;45.524;10.938;2023-05-27T05:12:25;18.10;99.90
41256;DHT22;26989;45.524;10.938;2023-05-27T05:14:55;18.10;99.90
41256;DHT22;26989;45.524;10.938;2023-05-27T05:17:22;17.90;99.90
41256;DHT22;26989;45.524;10.938;2023-05-27T05:19:52;18.10;99.90
41256;DHT22;26989;45.524;10.938;2023-05-27T05:22:19;18.30;99.90
41256;DHT22;26989;45.524;10.938;2023-05-27T05:24:49;18.30;99.90
41256;DHT22;26989;45.524;10.938;2023-05-27T05:27:16;18.40;99.90
41256;DHT22;26989;45.524;10.938;2023-05-27T05:29:43;18.40;99.90
41256;DHT22;26989;45.524;10.938;2023-05-27T05:32:11;18.50;99.90
41256;DHT22;26989;45.524;10.938;2023-05-27T05:34:39;18.60;99.90
41256;DHT22;26989;45.524;10.938;2023-05-27T05:37:06;18.60;99.90
41256;DHT22;26989;45.524;10.938;2023-05-27T05:39:33;18.60;99.90
41256;DHT22;26989;45.524;10.938;2023-05-27T05:42:00;18.70;99.90
41256;DHT22;26989;45.524;10.938;2023-05-27T05:44:26;18.70;99.90
41256;DHT22;26989;45.524;10.938;2023-05-27T05:46:53;18.70;99.90
41256;DHT22;26989;45.524;10.938;2023-05-27T05:49:20;18.90;99.90
41256;DHT22;26989;45.524;10.938;2023-05-27T05:51:49;18.70;99.90
41256;DHT22;26989;45.524;10.938;2023-05-27T05:54:16;18.90;99.90
41256;DHT22;26989;45.524;10.938;2023-05-27T05:56:43;18.90;99.90
41256;DHT22;26989;45.524;10.938;2023-05-27T05:59:10;19.10;99.90
41256;DHT22;26989;45.524;10.938;2023-05-27T06:01:37;19.30;99.90
41256;DHT22;26989;45.524;10.938;2023-05-27T06:04:05;19.40;99.90
41256;DHT22;26989;45.524;10.938;2023-05-27T06:06:35;19.60;99.90
41256;DHT22;26989;45.524;10.938;2023-05-27T06:09:02;19.70;99.90
41256;DHT22;26989;45.524;10.938;2023-05-27T06:11:29;20.20;99.90
41256;DHT22;26989;45.524;10.938;2023-05-27T06:13:56;20.50;99.90
41256;DHT22;26989;45.524;10.938;2023-05-27T06:16:23;20.40;99.90
41256;DHT22;26989;45.524;10.938;2023-05-27T06:18:50;20.30;99.90
41256;DHT22;26989;45.524;10.938;2023-05-27T06:21:18;20.20;99.90
41256;DHT22;26989;45.524;10.938;2023-05-27T06:23:45;20.70;99.90
41256;DHT22;26989;45.524;10.938;2023-05-27T06:26:13;21.20;99.90
41256;DHT22;26989;45.524;10.938;2023-05-27T06:28:40;21.40;99.90
41256;DHT22;26989;45.524;10.938;2023-05-27T06:31:07;21.60;99.90
41256;DHT22;26989;45.524;10.938;2023-05-27T06:33:36;21.60;99.90
41256;DHT22;26989;45.524;10.938;2023-05-27T06:36:03;21.60;99.90
41256;DHT22;26989;45.524;10.938;2023-05-27T06:38:30;21.70;99.90
41256;DHT22;26989;45.524;10.938;2023-05-27T06:40:57;21.80;99.90
41256;DHT22;26989;45.524;10.938;2023-05-27T06:43:24;22.10;99.90
41256;DHT22;26989;45.524;10.938;2023-05-27T06:45:51;22.10;99.90
41256;DHT22;26989;45.524;10.938;2023-05-27T06:48:31;21.70;99.90
41256;DHT22;26989;45.524;10.938;2023-05-27T06:50:58;21.20;99.90
41256;DHT22;26989;45.524;10.938;2023-05-27T06:53:28;22.10;99.90
41256;DHT22;26989;45.524;10.938;2023-05-27T06:55:55;22.30;99.90
41256;DHT22;26989;45.524;10.938;2023-05-27T06:58:28;22.70;99.90
41256;DHT22;26989;45.524;10.938;2023-05-27T07:00:56;23.00;99.90
41256;DHT22;26989;45.524;10.938;2023-05-27T07:03:23;23.50;99.90
41256;DHT22;26989;45.524;10.938;2023-05-27T07:05:57;23.60;99.90
41256;DHT22;26989;45.524;10.938;2023-05-27T07:08:40;23.40;99.90
41256;DHT22;26989;45.524;10.938;2023-05-27T07:11:35;23.50;99.90
41256;DHT22;26989;45.524;10.938;2023-05-27T07:14:42;23.60;99.90
41256;DHT22;26989;45.524;10.938;2023-05-27T07:17:32;23.20;99.90
41256;DHT22;26989;45.524;10.938;2023-05-27T07:20:34;23.60;99.90
41256;DHT22;26989;45.524;10.938;2023-05-27T07:23:04;23.80;99.90
41256;DHT22;26989;45.524;10.938;2023-05-27T07:25:32;23.80;99.90
41256;DHT22;26989;45.524;10.938;2023-05-27T07:27:59;23.80;99.90
41256;DHT22;26989;45.524;10.938;2023-05-27T07:30:26;23.70;99.90
41256;DHT22;26989;45.524;10.938;2023-05-27T07:32:54;23.60;99.90
41256;DHT22;26989;45.524;10.938;2023-05-27T07:35:23;23.80;99.90
41256;DHT22;26989;45.524;10.938;2023-05-27T07:37:54;23.90;99.90
41256;DHT22;26989;45.524;10.938;2023-05-27T07:40:21;24.10;99.90
41256;DHT22;26989;45.524;10.938;2023-05-27T07:42:48;24.40;99.90
41256;DHT22;26989;45.524;10.938;2023-05-27T07:45:15;24.10;99.90
41256;DHT22;26989;45.524;10.938;2023-05-27T07:47:42;23.90;99.90
41256;DHT22;26989;45.524;10.938;2023-05-27T07:50:14;24.20;99.90
41256;DHT22;26989;45.524;10.938;2023-05-27T07:52:44;24.70;99.90
41256;DHT22;26989;45.524;10.938;2023-05-27T07:55:17;24.60;99.90
41256;DHT22;26989;45.524;10.938;2023-05-27T07:57:46;24.80;99.90
41256;DHT22;26989;45.524;10.938;2023-05-27T08:00:13;24.70;99.90
41256;DHT22;26989;45.524;10.938;2023-05-27T08:02:43;24.60;99.90
41256;DHT22;26989;45.524;10.938;2023-05-27T08:05:15;24.90;99.90
41256;DHT22;26989;45.524;10.938;2023-05-27T08:07:42;25.00;99.90
41256;DHT22;26989;45.524;10.938;2023-05-27T08:10:09;24.50;99.90
41256;DHT22;26989;45.524;10.938;2023-05-27T08:12:36;25.00;99.90
41256;DHT22;26989;45.524;10.938;2023-05-27T08:15:05;25.30;99.90
41256;DHT22;26989;45.524;10.938;2023-05-27T08:17:33;25.70;99.90
41256;DHT22;26989;45.524;10.938;2023-05-27T08:20:00;26.00;99.60
41256;DHT22;26989;45.524;10.938;2023-05-27T08:22:27;26.40;99.40
41256;DHT22;26989;45.524;10.938;2023-05-27T08:24:54;26.50;98.80
41256;DHT22;26989;45.524;10.938;2023-05-27T08:27:44;26.40;98.20
41256;DHT22;26989;45.524;10.938;2023-05-27T08:30:14;26.20;98.80
41256;DHT22;26989;45.524;10.938;2023-05-27T08:32:41;24.80;99.90
41256;DHT22;26989;45.524;10.938;2023-05-27T08:35:15;25.40;99.90
41256;DHT22;26989;45.524;10.938;2023-05-27T08:37:47;25.90;99.60
41256;DHT22;26989;45.524;10.938;2023-05-27T08:40:18;25.70;98.70
41256;DHT22;26989;45.524;10.938;2023-05-27T08:42:46;26.20;98.10
41256;DHT22;26989;45.524;10.938;2023-05-27T08:45:18;26.50;98.30
41256;DHT22;26989;45.524;10.938;2023-05-27T08:47:45;26.90;97.10
41256;DHT22;26989;45.524;10.938;2023-05-27T08:50:15;26.70;96.80
41256;DHT22;26989;45.524;10.938;2023-05-27T08:52:47;26.60;97.80
41256;DHT22;26989;45.524;10.938;2023-05-27T08:55:16;26.90;97.50
41256;DHT22;26989;45.524;10.938;2023-05-27T08:57:55;26.60;97.20
41256;DHT22;26989;45.524;10.938;2023-05-27T09:00:23;26.50;96.00
41256;DHT22;26989;45.524;10.938;2023-05-27T09:02:51;26.50;95.90
41256;DHT22;26989;45.524;10.938;2023-05-27T09:05:23;26.30;95.70
41256;DHT22;26989;45.524;10.938;2023-05-27T09:07:54;26.40;95.10
41256;DHT22;26989;45.524;10.938;2023-05-27T09:10:34;26.20;96.40
41256;DHT22;26989;45.524;10.938;2023-05-27T09:13:06;26.50;96.60
41256;DHT22;26989;45.524;10.938;2023-05-27T09:15:34;26.50;95.90
41256;DHT22;26989;45.524;10.938;2023-05-27T09:18:06;26.80;95.40
41256;DHT22;26989;45.524;10.938;2023-05-27T09:20:36;26.90;95.30
41256;DHT22;26989;45.524;10.938;2023-05-27T09:23:04;26.70;94.50
41256;DHT22;26989;45.524;10.938;2023-05-27T09:25:31;26.70;94.20
41256;DHT22;26989;45.524;10.938;2023-05-27T09:27:58;26.90;94.30
41256;DHT22;26989;45.524;10.938;2023-05-27T09:30:25;27.00;93.90
41256;DHT22;26989;45.524;10.938;2023-05-27T09:33:04;27.20;93.70
41256;DHT22;26989;45.524;10.938;2023-05-27T09:35:37;27.00;93.40
41256;DHT22;26989;45.524;10.938;2023-05-27T09:38:17;27.00;93.60
41256;DHT22;26989;45.524;10.938;2023-05-27T09:40:48;27.20;93.10
41256;DHT22;26989;45.524;10.938;2023-05-27T09:43:15;27.70;92.90
41256;DHT22;26989;45.524;10.938;2023-05-27T09:45:44;27.20;92.00
41256;DHT22;26989;45.524;10.938;2023-05-27T09:48:12;27.40;91.80
41256;DHT22;26989;45.524;10.938;2023-05-27T09:50:42;27.30;91.00
41256;DHT22;26989;45.524;10.938;2023-05-27T09:53:10;27.20;91.50
41256;DHT22;26989;45.524;10.938;2023-05-27T09:55:39;27.50;91.20
41256;DHT22;26989;45.524;10.938;2023-05-27T09:58:07;27.20;91.50
41256;DHT22;26989;45.524;10.938;2023-05-27T10:00:43;26.80;92.40
41256;DHT22;26989;45.524;10.938;2023-05-27T10:03:23;26.40;91.80
41256;DHT22;26989;45.524;10.938;2023-05-27T10:05:55;26.50;91.50
41256;DHT22;26989;45.524;10.938;2023-05-27T10:08:23;26.50;91.50
41256;DHT22;26989;45.524;10.938;2023-05-27T10:10:53;26.80;91.40
41256;DHT22;26989;45.524;10.938;2023-05-27T10:13:23;27.10;91.80
41256;DHT22;26989;45.524;10.938;2023-05-27T10:15:52;27.20;91.40
41256;DHT22;26989;45.524;10.938;2023-05-27T10:18:26;27.20;91.30
41256;DHT22;26989;45.524;10.938;2023-05-27T10:20:57;26.70;91.50
41256;DHT22;26989;45.524;10.938;2023-05-27T10:23:28;26.70;91.50
41256;DHT22;26989;45.524;10.938;2023-05-27T10:26:01;26.70;91.30
41256;DHT22;26989;45.524;10.938;2023-05-27T10:28:33;26.80;91.80
41256;DHT22;26989;45.524;10.938;2023-05-27T10:31:16;26.50;91.30
41256;DHT22;26989;45.524;10.938;2023-05-27T10:33:45;26.50;92.20
41256;DHT22;26989;45.524;10.938;2023-05-27T10:38:42;27.10;91.20
41256;DHT22;26989;45.524;10.938;2023-05-27T10:41:09;26.60;91.80
41256;DHT22;26989;45.524;10.938;2023-05-27T10:43:37;26.50;91.90
41256;DHT22;26989;45.524;10.938;2023-05-27T10:46:09;27.10;91.50
41256;DHT22;26989;45.524;10.938;2023-05-27T10:48:39;27.00;91.20
41256;DHT22;26989;45.524;10.938;2023-05-27T10:51:08;26.50;91.60
41256;DHT22;26989;45.524;10.938;2023-05-27T10:53:36;26.40;91.10
41256;DHT22;26989;45.524;10.938;2023-05-27T10:56:04;26.30;92.50
41256;DHT22;26989;45.524;10.938;2023-05-27T10:58:34;25.90;92.60
41256;DHT22;26989;45.524;10.938;2023-05-27T11:01:13;26.40;92.50
41256;DHT22;26989;45.524;10.938;2023-05-27T11:03:44;26.60;91.50
41256;DHT22;26989;45.524;10.938;2023-05-27T11:06:13;27.00;91.60
41256;DHT22;26989;45.524;10.938;2023-05-27T11:08:41;27.20;91.30
41256;DHT22;26989;45.524;10.938;2023-05-27T11:11:10;27.10;91.40
41256;DHT22;26989;45.524;10.938;2023-05-27T11:13:45;27.60;91.20
41256;DHT22;26989;45.524;10.938;2023-05-27T11:16:15;27.30;90.90
41256;DHT22;26989;45.524;10.938;2023-05-27T11:18:56;26.40;91.10
41256;DHT22;26989;45.524;10.938;2023-05-27T11:21:23;26.90;90.60
41256;DHT22;26989;45.524;10.938;2023-05-27T11:23:50;27.20;90.20
41256;DHT22;26989;45.524;10.938;2023-05-27T11:26:22;27.60;90.80
41256;DHT22;26989;45.524;10.938;2023-05-27T11:28:58;27.90;90.00
41256;DHT22;26989;45.524;10.938;2023-05-27T11:31:29;28.10;90.10
41256;DHT22;26989;45.524;10.938;2023-05-27T11:33:57;28.50;89.20
41256;DHT22;26989;45.524;10.938;2023-05-27T11:36:28;28.20;89.40
41256;DHT22;26989;45.524;10.938;2023-05-27T11:38:59;28.20;88.50
41256;DHT22;26989;45.524;10.938;2023-05-27T11:41:36;28.20;88.40
41256;DHT22;26989;45.524;10.938;2023-05-27T11:44:07;27.80;89.80
41256;DHT22;26989;45.524;10.938;2023-05-27T11:49:07;28.40;87.20
41256;DHT22;26989;45.524;10.938;2023-05-27T11:51:37;28.50;87.50
41256;DHT22;26989;45.524;10.938;2023-05-27T11:54:05;27.50;89.30
41256;DHT22;26989;45.524;10.938;2023-05-27T11:56:41;27.70;88.50
41256;DHT22;26989;45.524;10.938;2023-05-27T11:59:23;28.00;87.80
41256;DHT22;26989;45.524;10.938;2023-05-27T12:01:51;28.10;88.00
41256;DHT22;26989;45.524;10.938;2023-05-27T12:04:21;28.10;87.80
41256;DHT22;26989;45.524;10.938;2023-05-27T12:06:48;28.40;86.60
41256;DHT22;26989;45.524;10.938;2023-05-27T12:09:15;28.60;86.60
41256;DHT22;26989;45.524;10.938;2023-05-27T12:11:42;28.10;88.20
41256;DHT22;26989;45.524;10.938;2023-05-27T12:14:12;28.00;89.60
41256;DHT22;26989;45.524;10.938;2023-05-27T12:16:38;27.80;89.80
41256;DHT22;26989;45.524;10.938;2023-05-27T12:19:06;28.30;88.60
41256;DHT22;26989;45.524;10.938;2023-05-27T12:21:33;28.50;88.60
41256;DHT22;26989;45.524;10.938;2023-05-27T12:24:00;29.00;86.90
41256;DHT22;26989;45.524;10.938;2023-05-27T12:26:31;28.00;88.80
41256;DHT22;26989;45.524;10.938;2023-05-27T12:29:03;28.30;88.20
41256;DHT22;26989;45.524;10.938;2023-05-27T12:31:32;28.50;88.80
41256;DHT22;26989;45.524;10.938;2023-05-27T12:33:59;28.60;88.80
41256;DHT22;26989;45.524;10.938;2023-05-27T12:36:26;29.00;87.20
41256;DHT22;26989;45.524;10.938;2023-05-27T12:38:53;29.20;87.30
41256;DHT22;26989;45.524;10.938;2023-05-27T12:41:23;29.50;86.20
41256;DHT22;26989;45.524;10.938;2023-05-27T12:43:51;28.80;86.60
41256;DHT22;26989;45.524;10.938;2023-05-27T12:46:19;28.80;87.80
41256;DHT22;26989;45.524;10.938;2023-05-27T12:48:46;28.60;87.10
41256;DHT22;26989;45.524;10.938;2023-05-27T12:51:13;29.10;87.80
41256;DHT22;26989;45.524;10.938;2023-05-27T12:53:41;28.80;86.40
41256;DHT22;26989;45.524;10.938;2023-05-27T12:56:23;28.70;85.60
41256;DHT22;26989;45.524;10.938;2023-05-27T12:58:50;28.20;86.60
41256;DHT22;26989;45.524;10.938;2023-05-27T13:01:17;28.20;86.20
41256;DHT22;26989;45.524;10.938;2023-05-27T13:03:44;28.60;86.00
41256;DHT22;26989;45.524;10.938;2023-05-27T13:06:11;28.60;85.30
41256;DHT22;26989;45.524;10.938;2023-05-27T13:08:38;28.30;84.60
41256;DHT22;26989;45.524;10.938;2023-05-27T13:11:05;28.10;85.60
41256;DHT22;26989;45.524;10.938;2023-05-27T13:13:33;27.30;86.50
41256;DHT22;26989;45.524;10.938;2023-05-27T13:16:00;27.80;88.30
41256;DHT22;26989;45.524;10.938;2023-05-27T13:18:27;28.10;86.00
41256;DHT22;26989;45.524;10.938;2023-05-27T13:20:54;28.60;84.00
41256;DHT22;26989;45.524;10.938;2023-05-27T13:23:21;28.70;83.80
41256;DHT22;26989;45.524;10.938;2023-05-27T13:25:48;28.40;83.40
41256;DHT22;26989;45.524;10.938;2023-05-27T13:28:16;28.60;84.40
41256;DHT22;26989;45.524;10.938;2023-05-27T13:30:43;29.20;84.10
41256;DHT22;26989;45.524;10.938;2023-05-27T13:33:10;29.40;82.90
41256;DHT22;26989;45.524;10.938;2023-05-27T13:35:37;29.60;84.20
41256;DHT22;26989;45.524;10.938;2023-05-27T13:38:04;29.90;83.00
41256;DHT22;26989;45.524;10.938;2023-05-27T13:40:32;29.70;81.30
41256;DHT22;26989;45.524;10.938;2023-05-27T13:42:59;29.10;84.00
41256;DHT22;26989;45.524;10.938;2023-05-27T13:45:27;29.10;83.80
41256;DHT22;26989;45.524;10.938;2023-05-27T13:47:54;29.60;83.20
41256;DHT22;26989;45.524;10.938;2023-05-27T13:50:22;29.30;83.20
41256;DHT22;26989;45.524;10.938;2023-05-27T13:52:49;29.50;82.60
41256;DHT22;26989;45.524;10.938;2023-05-27T13:55:16;29.30;81.50
41256;DHT22;26989;45.524;10.938;2023-05-27T13:57:43;29.60;81.60
41256;DHT22;26989;45.524;10.938;2023-05-27T14:00:11;29.90;81.60
41256;DHT22;26989;45.524;10.938;2023-05-27T14:02:38;30.10;80.00
41256;DHT22;26989;45.524;10.938;2023-05-27T14:05:06;30.00;81.00
41256;DHT22;26989;45.524;10.938;2023-05-27T14:07:39;30.10;80.30
41256;DHT22;26989;45.524;10.938;2023-05-27T14:10:07;29.40;80.20
41256;DHT22;26989;45.524;10.938;2023-05-27T14:12:34;29.80;81.20
41256;DHT22;26989;45.524;10.938;2023-05-27T14:15:01;29.70;80.30
41256;DHT22;26989;45.524;10.938;2023-05-27T14:17:28;29.70;81.10
41256;DHT22;26989;45.524;10.938;2023-05-27T14:19:56;29.60;81.40
41256;DHT22;26989;45.524;10.938;2023-05-27T14:22:26;29.80;81.20
41256;DHT22;26989;45.524;10.938;2023-05-27T14:24:54;29.30;82.00
41256;DHT22;26989;45.524;10.938;2023-05-27T14:27:21;29.70;81.90
41256;DHT22;26989;45.524;10.938;2023-05-27T14:29:48;29.90;82.60
41256;DHT22;26989;45.524;10.938;2023-05-27T14:32:15;30.10;82.10
41256;DHT22;26989;45.524;10.938;2023-05-27T14:34:42;30.60;81.30
41256;DHT22;26989;45.524;10.938;2023-05-27T14:37:09;30.10;80.70
41256;DHT22;26989;45.524;10.938;2023-05-27T14:39:37;29.00;81.00
41256;DHT22;26989;45.524;10.938;2023-05-27T14:42:04;27.90;84.20
41256;DHT22;26989;45.524;10.938;2023-05-27T14:44:35;28.30;84.90
41256;DHT22;26989;45.524;10.938;2023-05-27T14:47:02;27.60;86.00
41256;DHT22;26989;45.524;10.938;2023-05-27T14:49:30;27.10;87.20
41256;DHT22;26989;45.524;10.938;2023-05-27T14:51:57;27.90;86.20
41256;DHT22;26989;45.524;10.938;2023-05-27T14:54:24;28.20;85.70
41256;DHT22;26989;45.524;10.938;2023-05-27T14:56:52;28.30;84.20
41256;DHT22;26989;45.524;10.938;2023-05-27T14:59:18;28.10;83.70
41256;DHT22;26989;45.524;10.938;2023-05-27T15:01:48;27.90;84.10
41256;DHT22;26989;45.524;10.938;2023-05-27T15:04:15;26.80;87.20
41256;DHT22;26989;45.524;10.938;2023-05-27T15:06:44;26.10;88.70
41256;DHT22;26989;45.524;10.938;2023-05-27T15:09:11;24.40;92.90
41256;DHT22;26989;45.524;10.938;2023-05-27T15:11:38;23.90;94.10
41256;DHT22;26989;45.524;10.938;2023-05-27T15:14:05;23.40;94.70
41256;DHT22;26989;45.524;10.938;2023-05-27T15:16:33;23.50;94.80
41256;DHT22;26989;45.524;10.938;2023-05-27T15:19:00;23.20;95.00
41256;DHT22;26989;45.524;10.938;2023-05-27T15:21:26;23.20;95.40
41256;DHT22;26989;45.524;10.938;2023-05-27T15:23:53;23.10;95.20
41256;DHT22;26989;45.524;10.938;2023-05-27T15:26:20;23.20;95.10
41256;DHT22;26989;45.524;10.938;2023-05-27T15:28:48;23.60;95.60
41256;DHT22;26989;45.524;10.938;2023-05-27T15:31:15;23.60;95.10
41256;DHT22;26989;45.524;10.938;2023-05-27T15:33:42;23.40;94.80
41256;DHT22;26989;45.524;10.938;2023-05-27T15:36:09;23.40;95.00
41256;DHT22;26989;45.524;10.938;2023-05-27T15:38:36;23.40;94.20